Time;durP1;ratioP1;P1;durP2;ratioP2;P2;SDS_P1;SDS_P2;PMS_P1;PMS_P2;Temp;Humidity;BMP_temperature;BMP_pressure;BME280_temperature;BME280_humidity;BME280_pressure;Samples;Min_cycle;Max_cycle;Signal;HPM_P1;HPM_P2
2022/12/20 00:00:14;;;;;;;22.80;5.35;;;12.10;99.90;;;;;;5091904;28;20069;-73
2022/12/20 00:02:40;;;;;;;12.50;3.17;;;12.10;99.90;;;;;;5103241;28;20050;-73
2022/12/20 00:05:06;;;;;;;13.18;3.13;;;12.10;99.90;;;;;;5111731;28;20403;-74
2022/12/20 00:07:32;;;;;;;20.65;4.05;;;12.10;99.90;;;;;;5103759;28;20032;-74
2022/12/20 00:09:57;;;;;;;20.75;4.07;;;12.20;99.90;;;;;;5104517;28;20078;-74
2022/12/20 00:12:23;;;;;;;14.75;3.17;;;12.20;99.90;;;;;;5106917;28;20385;-74
2022/12/20 00:14:49;;;;;;;21.23;3.80;;;12.20;99.90;;;;;;5109680;28;20479;-74
2022/12/20 00:17:14;;;;;;;24.05;4.72;;;12.20;99.90;;;;;;5090157;28;20364;-73
2022/12/20 00:19:42;;;;;;;22.95;3.65;;;12.10;99.90;;;;;;5110439;28;20028;-73
2022/12/20 00:22:07;;;;;;;21.08;3.83;;;12.10;99.90;;;;;;5097617;28;20028;-74
2022/12/20 00:24:33;;;;;;;20.38;5.07;;;12.10;99.90;;;;;;5099510;28;20032;-74
2022/12/20 00:26:59;;;;;;;23.17;3.38;;;12.10;99.90;;;;;;5089244;28;20034;-73
2022/12/20 00:29:24;;;;;;;18.42;4.00;;;12.10;99.90;;;;;;5109905;28;20027;-74
2022/12/20 00:31:50;;;;;;;15.30;3.28;;;12.10;99.90;;;;;;5107720;28;20028;-74
2022/12/20 00:34:16;;;;;;;25.85;3.83;;;12.10;99.90;;;;;;5109450;28;20088;-73
2022/12/20 00:36:41;;;;;;;15.52;3.33;;;12.20;99.90;;;;;;5109391;28;20336;-74
2022/12/20 00:39:08;;;;;;;22.92;3.55;;;12.20;99.90;;;;;;5111084;28;20027;-74
2022/12/20 00:41:34;;;;;;;23.70;3.40;;;12.20;99.90;;;;;;5106547;28;20032;-74
2022/12/20 00:44:00;;;;;;;21.20;3.17;;;12.20;99.90;;;;;;5102094;28;20031;-73
2022/12/20 00:46:26;;;;;;;23.13;5.40;;;12.20;99.90;;;;;;5109280;28;20050;-73
2022/12/20 00:48:53;;;;;;;18.83;4.45;;;12.20;99.90;;;;;;5111342;28;20061;-74
2022/12/20 00:51:24;;;;;;;18.08;4.03;;;12.20;99.90;;;;;;5109188;28;20025;-74
2022/12/20 00:53:50;;;;;;;17.42;3.67;;;12.20;99.90;;;;;;5103006;28;20375;-73
2022/12/20 00:56:17;;;;;;;19.70;4.05;;;12.20;99.90;;;;;;5109808;28;20106;-74
2022/12/20 00:58:43;;;;;;;21.60;4.07;;;12.20;99.90;;;;;;5104909;28;20032;-73
2022/12/20 01:01:21;;;;;;;12.48;3.17;;;12.20;99.90;;;;;;5106889;28;20101;-73
2022/12/20 01:03:47;;;;;;;16.65;4.75;;;12.20;99.90;;;;;;5101734;28;20127;-73
2022/12/20 01:06:12;;;;;;;22.58;3.33;;;12.20;99.90;;;;;;5108149;28;20039;-73
2022/12/20 01:08:38;;;;;;;14.25;3.65;;;12.20;99.90;;;;;;5107528;28;20032;-73
2022/12/20 01:11:11;;;;;;;20.40;4.63;;;12.20;99.90;;;;;;5106365;28;20126;-70
2022/12/20 01:13:39;;;;;;;;;;;12.20;99.90;;;;;;5103957;28;20543;-73
2022/12/20 01:16:13;;;;;;;14.63;3.10;;;12.20;99.90;;;;;;5105750;28;19930;-73
2022/12/20 01:18:39;;;;;;;20.55;3.53;;;12.20;99.90;;;;;;5102793;28;20027;-73
2022/12/20 01:21:08;;;;;;;21.85;4.32;;;12.20;99.90;;;;;;5108566;28;20027;-74
2022/12/20 01:23:34;;;;;;;18.58;3.65;;;12.20;99.90;;;;;;5099445;28;20521;-74
2022/12/20 01:26:03;;;;;;;13.05;4.35;;;12.20;99.90;;;;;;5107722;28;20024;-74
2022/12/20 01:28:30;;;;;;;24.52;5.10;;;12.20;99.90;;;;;;5090294;28;20038;-73
2022/12/20 01:30:56;;;;;;;16.25;3.20;;;12.20;99.90;;;;;;5110050;28;20024;-74
2022/12/20 01:33:22;;;;;;;23.98;5.28;;;12.20;99.90;;;;;;5099427;28;20077;-74
2022/12/20 01:36:06;;;;;;;22.30;3.67;;;12.20;99.90;;;;;;5108716;28;20058;-74
2022/12/20 01:38:33;;;;;;;14.38;5.03;;;12.10;99.90;;;;;;5108497;28;20445;-73
2022/12/20 01:40:59;;;;;;;26.05;3.75;;;12.10;99.90;;;;;;5108374;28;20440;-67
2022/12/20 01:43:44;;;;;;;15.32;3.50;;;12.10;99.90;;;;;;5095680;28;20062;-74
2022/12/20 01:46:10;;;;;;;17.88;3.53;;;12.20;99.90;;;;;;5108894;28;20031;-73
2022/12/20 01:48:36;;;;;;;17.83;3.70;;;12.10;99.90;;;;;;5105045;28;20074;-74
2022/12/20 01:51:03;;;;;;;18.45;3.83;;;12.10;99.90;;;;;;5103650;28;20047;-73
2022/12/20 01:53:30;;;;;;;16.50;2.72;;;12.10;99.90;;;;;;5107864;28;20050;-72
2022/12/20 01:55:57;;;;;;;20.92;3.50;;;12.10;99.90;;;;;;5109901;28;20114;-74
2022/12/20 01:58:23;;;;;;;17.38;4.18;;;12.00;99.90;;;;;;5100139;28;20110;-74
2022/12/20 02:00:49;;;;;;;13.00;3.58;;;12.00;99.90;;;;;;5103491;28;20051;-74
2022/12/20 02:03:15;;;;;;;24.45;5.15;;;12.10;99.90;;;;;;5110437;28;20039;-74
2022/12/20 02:05:46;;;;;;;20.92;5.25;;;12.00;99.90;;;;;;5107898;28;20055;-74
2022/12/20 02:08:15;;;;;;;17.45;3.15;;;12.00;99.90;;;;;;5084222;28;20067;-73
2022/12/20 02:11:11;;;;;;;15.25;3.75;;;12.00;99.90;;;;;;5109733;28;20035;-74
2022/12/20 02:14:13;;;;;;;13.65;4.25;;;12.00;99.90;;;;;;5103695;28;20110;-73
2022/12/20 02:16:53;;;;;;;23.00;3.83;;;12.00;99.90;;;;;;5083062;28;20479;-74
2022/12/20 02:19:34;;;;;;;18.73;2.58;;;12.00;99.90;;;;;;5113028;28;20034;-74
2022/12/20 02:22:37;;;;;;;14.68;3.03;;;12.00;99.90;;;;;;5101113;28;20032;-74
2022/12/20 02:25:28;;;;;;;13.43;3.15;;;12.00;99.90;;;;;;5107133;28;20055;-74
2022/12/20 02:27:57;;;;;;;17.85;2.63;;;12.00;99.90;;;;;;5089563;28;20494;-76
2022/12/20 02:30:27;;;;;;;14.93;4.18;;;12.00;99.90;;;;;;5103253;28;20039;-74
2022/12/20 02:33:13;;;;;;;11.82;2.72;;;12.00;99.90;;;;;;5099022;28;20026;-74
2022/12/20 02:35:40;;;;;;;15.77;2.75;;;11.90;99.90;;;;;;5111731;28;20050;-74
2022/12/20 02:38:32;;;;;;;21.67;4.18;;;12.00;99.90;;;;;;5105533;28;20016;-73
2022/12/20 02:41:01;;;;;;;;;;;11.90;99.90;;;;;;5082490;28;20023;-75
2022/12/20 02:46:14;;;;;;;18.77;2.90;;;12.00;99.90;;;;;;5112962;28;20042;-74
2022/12/20 02:48:41;;;;;;;16.67;2.78;;;12.00;99.90;;;;;;5103952;28;20043;-73
2022/12/20 02:51:08;;;;;;;11.98;2.67;;;12.00;99.90;;;;;;5106992;28;20024;-74
2022/12/20 02:53:36;;;;;;;16.17;3.03;;;12.00;99.90;;;;;;5110846;28;20030;-74
2022/12/20 02:56:22;;;;;;;15.30;2.38;;;11.90;99.90;;;;;;5109456;28;20024;-73
2022/12/20 02:58:55;;;;;;;11.65;3.03;;;11.90;99.90;;;;;;5101975;28;20028;-74
2022/12/20 03:01:28;;;;;;;12.65;2.70;;;11.90;99.90;;;;;;5104207;28;20049;-74
2022/12/20 03:03:55;;;;;;;10.95;3.08;;;11.90;99.90;;;;;;5103874;28;20384;-74
2022/12/20 03:06:21;;;;;;;17.20;3.85;;;11.90;99.90;;;;;;5113007;28;20019;-74
2022/12/20 03:08:47;;;;;;;13.40;3.58;;;11.90;99.90;;;;;;5098512;28;20558;-74
2022/12/20 03:11:13;;;;;;;10.18;2.90;;;11.80;99.90;;;;;;5100358;28;20881;-74
2022/12/20 03:13:39;;;;;;;16.73;3.35;;;11.80;99.90;;;;;;5110558;28;20028;-75
2022/12/20 03:16:05;;;;;;;14.60;3.38;;;11.80;99.90;;;;;;5108256;28;20026;-74
2022/12/20 03:18:30;;;;;;;12.75;2.70;;;11.80;99.90;;;;;;5091816;28;20031;-74
2022/12/20 03:20:56;;;;;;;8.50;3.08;;;11.80;99.90;;;;;;5104825;28;20020;-73
2022/12/20 03:23:22;;;;;;;11.45;2.80;;;11.80;99.90;;;;;;5099440;28;20467;-74
2022/12/20 03:25:47;;;;;;;14.13;3.88;;;11.80;99.90;;;;;;5109707;28;20030;-74
2022/12/20 03:28:13;;;;;;;15.27;3.38;;;11.80;99.90;;;;;;5110650;28;20134;-75
2022/12/20 03:30:39;;;;;;;15.70;3.55;;;11.80;99.90;;;;;;5095402;28;20032;-74
2022/12/20 03:33:04;;;;;;;20.13;3.55;;;11.80;99.90;;;;;;5103361;28;20031;-74
2022/12/20 03:35:30;;;;;;;23.92;5.30;;;11.90;99.90;;;;;;5110779;28;20471;-75
2022/12/20 03:37:56;;;;;;;13.05;3.03;;;11.80;99.90;;;;;;5110419;28;20379;-73
2022/12/20 03:40:22;;;;;;;14.68;4.20;;;11.90;99.90;;;;;;5100004;28;20085;-74
2022/12/20 03:42:47;;;;;;;14.00;3.50;;;11.90;99.90;;;;;;5105731;28;20019;-73
2022/12/20 03:45:13;;;;;;;11.23;3.92;;;11.90;99.90;;;;;;5099712;28;20559;-73
2022/12/20 03:47:38;;;;;;;17.45;3.55;;;11.90;99.90;;;;;;5097686;28;20035;-73
2022/12/20 03:50:06;;;;;;;16.77;3.42;;;11.90;99.90;;;;;;5107338;28;20032;-75
2022/12/20 03:52:31;;;;;;;18.95;4.45;;;11.90;99.90;;;;;;5105730;28;20016;-75
2022/12/20 03:54:57;;;;;;;18.35;4.32;;;11.90;99.90;;;;;;5099157;28;20032;-75
2022/12/20 03:57:22;;;;;;;18.05;3.85;;;11.90;99.90;;;;;;5111265;28;20085;-73
2022/12/20 03:59:48;;;;;;;18.15;4.95;;;11.90;99.90;;;;;;5109897;28;20039;-74
2022/12/20 04:02:14;;;;;;;17.63;3.83;;;11.90;99.90;;;;;;5109511;28;20083;-75
2022/12/20 04:04:39;;;;;;;18.33;5.18;;;11.90;99.90;;;;;;5098579;28;20055;-75
2022/12/20 04:07:05;;;;;;;14.23;3.47;;;12.00;99.90;;;;;;5111727;28;20039;-75
2022/12/20 04:09:31;;;;;;;14.77;2.60;;;12.00;99.90;;;;;;5109986;28;20028;-74
2022/12/20 04:11:57;;;;;;;14.23;3.72;;;12.00;99.90;;;;;;5111685;28;20089;-74
2022/12/20 04:14:22;;;;;;;10.63;3.03;;;12.00;99.90;;;;;;5097866;28;20024;-74
2022/12/20 04:16:48;;;;;;;19.88;4.45;;;12.00;99.90;;;;;;5104120;28;20035;-75
2022/12/20 04:19:14;;;;;;;8.88;3.60;;;12.00;99.90;;;;;;5109847;28;20101;-75
2022/12/20 04:21:39;;;;;;;19.85;3.80;;;12.00;99.90;;;;;;5102244;28;20081;-73
2022/12/20 04:24:06;;;;;;;12.32;3.47;;;12.00;99.90;;;;;;5110457;28;20085;-74
2022/12/20 04:26:31;;;;;;;18.60;5.18;;;11.90;99.90;;;;;;5102181;28;20020;-74
2022/12/20 04:28:57;;;;;;;15.48;3.58;;;12.00;99.90;;;;;;5103972;28;20035;-74
2022/12/20 04:31:23;;;;;;;17.42;4.88;;;12.00;99.90;;;;;;5101263;28;20415;-73
2022/12/20 04:33:49;;;;;;;9.52;3.75;;;12.00;99.90;;;;;;5101204;28;20088;-74
2022/12/20 04:36:15;;;;;;;12.73;3.17;;;12.00;99.90;;;;;;5101716;28;20102;-73
2022/12/20 04:38:41;;;;;;;10.23;2.80;;;12.00;99.90;;;;;;5109423;28;20399;-75
2022/12/20 04:41:06;;;;;;;14.23;4.13;;;12.00;99.90;;;;;;5102834;28;20463;-71
2022/12/20 04:43:32;;;;;;;21.45;3.47;;;12.00;99.90;;;;;;5106418;28;20024;-75
2022/12/20 04:45:58;;;;;;;14.85;3.50;;;12.00;99.90;;;;;;5107410;28;20544;-76
2022/12/20 04:48:27;;;;;;;19.67;4.50;;;12.00;99.90;;;;;;5109051;28;20032;-74
2022/12/20 04:50:54;;;;;;;13.52;3.10;;;12.00;99.90;;;;;;5075835;28;20027;-73
2022/12/20 04:56:05;;;;;;;16.13;5.25;;;12.10;99.90;;;;;;5110218;28;20038;-74
2022/12/20 04:58:30;;;;;;;22.52;3.97;;;12.10;99.90;;;;;;5109098;28;20027;-75
2022/12/20 05:00:56;;;;;;;17.05;4.70;;;12.10;99.90;;;;;;5103076;28;20020;-74
2022/12/20 05:03:24;;;;;;;10.18;3.50;;;12.20;99.90;;;;;;5110739;28;20383;-74
2022/12/20 05:05:49;;;;;;;14.18;3.10;;;12.20;99.90;;;;;;5107687;28;20483;-75
2022/12/20 05:08:15;;;;;;;17.77;4.45;;;12.20;99.90;;;;;;5110562;28;20115;-75
2022/12/20 05:10:41;;;;;;;12.18;2.75;;;12.20;99.90;;;;;;5103356;28;20410;-74
2022/12/20 05:13:07;;;;;;;11.50;3.92;;;12.20;99.90;;;;;;5105256;28;20020;-74
2022/12/20 05:15:33;;;;;;;15.70;3.72;;;12.20;99.90;;;;;;5109857;28;20023;-74
2022/12/20 05:17:59;;;;;;;15.98;3.75;;;12.20;99.90;;;;;;5115969;27;20036;-74
2022/12/20 05:20:26;;;;;;;15.18;3.50;;;12.20;99.90;;;;;;5109707;28;20024;-75
2022/12/20 05:28:23;;;;;;;15.30;4.43;;;12.20;99.90;;;;;;5100286;28;20448;-74
2022/12/20 05:30:48;;;;;;;14.02;4.25;;;12.20;99.90;;;;;;5114359;28;20515;-73
2022/12/20 05:33:14;;;;;;;13.68;3.40;;;12.20;99.90;;;;;;5109095;28;20023;-74
2022/12/20 05:35:40;;;;;;;15.30;3.80;;;12.20;99.90;;;;;;5097024;28;20402;-74
2022/12/20 05:38:06;;;;;;;12.20;4.00;;;12.20;99.90;;;;;;5113020;28;20417;-75
2022/12/20 05:40:32;;;;;;;15.98;3.60;;;12.20;99.90;;;;;;5108055;28;20490;-76
2022/12/20 05:42:57;;;;;;;13.52;3.22;;;12.20;99.90;;;;;;5113381;27;20028;-74
2022/12/20 05:45:23;;;;;;;11.68;3.03;;;12.30;99.90;;;;;;5114628;27;20229;-74
2022/12/20 05:47:48;;;;;;;15.05;3.85;;;12.30;99.90;;;;;;5117526;27;20122;-73
2022/12/20 05:50:16;;;;;;;14.20;3.97;;;12.30;99.90;;;;;;5109514;27;20463;-75
2022/12/20 05:52:41;;;;;;;19.73;4.45;;;12.20;99.90;;;;;;5108910;28;20481;-74
2022/12/20 05:55:07;;;;;;;15.50;3.83;;;12.00;99.90;;;;;;5115453;27;20115;-74
2022/12/20 05:57:34;;;;;;;13.10;4.20;;;12.00;99.90;;;;;;5112444;27;20135;-74
2022/12/20 06:00:00;;;;;;;21.58;3.95;;;11.90;99.90;;;;;;5104049;28;20036;-74
2022/12/20 06:02:26;;;;;;;25.27;4.38;;;11.80;99.90;;;;;;5101561;28;20113;-74
2022/12/20 06:04:51;;;;;;;23.00;4.05;;;11.80;99.90;;;;;;5108579;28;20047;-74
2022/12/20 06:07:18;;;;;;;17.30;4.45;;;11.80;99.90;;;;;;5102102;28;20379;-75
2022/12/20 06:09:44;;;;;;;21.73;4.35;;;11.90;99.90;;;;;;5108519;28;20388;-74
2022/12/20 06:12:09;;;;;;;15.20;4.53;;;11.90;99.90;;;;;;5104870;28;20494;-74
2022/12/20 06:14:35;;;;;;;23.60;5.13;;;12.00;99.90;;;;;;5101291;28;20023;-73
2022/12/20 06:17:01;;;;;;;19.15;5.13;;;11.90;99.90;;;;;;5106541;28;20032;-73
2022/12/20 06:19:26;;;;;;;18.13;4.18;;;11.90;99.90;;;;;;5102926;28;20119;-74
2022/12/20 06:21:52;;;;;;;22.38;3.60;;;11.90;99.90;;;;;;5105792;28;20072;-73
2022/12/20 06:24:17;;;;;;;21.20;5.55;;;12.00;99.90;;;;;;5108575;28;20036;-76
2022/12/20 06:26:43;;;;;;;18.40;3.80;;;12.00;99.90;;;;;;5105720;28;20036;-75
2022/12/20 06:29:12;;;;;;;16.20;4.00;;;12.00;99.90;;;;;;5101294;28;20075;-75
2022/12/20 06:31:39;;;;;;;14.63;4.25;;;12.10;99.90;;;;;;5099948;28;20124;-74
2022/12/20 06:34:05;;;;;;;16.13;3.95;;;12.20;99.90;;;;;;5103646;28;20024;-74
2022/12/20 06:36:31;;;;;;;17.65;4.10;;;12.20;99.90;;;;;;5103852;28;20019;-73
2022/12/20 06:38:57;;;;;;;15.45;4.85;;;12.20;99.90;;;;;;5101267;28;20162;-75
2022/12/20 06:41:22;;;;;;;17.08;3.58;;;12.10;99.90;;;;;;5098888;28;20081;-75
2022/12/20 06:43:48;;;;;;;14.27;4.13;;;12.10;99.90;;;;;;5093043;28;20028;-74
2022/12/20 06:46:13;;;;;;;21.30;3.83;;;12.10;99.90;;;;;;5102811;28;20031;-74
2022/12/20 06:48:39;;;;;;;20.20;4.03;;;12.10;99.90;;;;;;5099570;28;20369;-75
2022/12/20 06:51:05;;;;;;;19.55;4.72;;;12.10;99.90;;;;;;5098277;28;20023;-75
2022/12/20 06:53:30;;;;;;;22.17;4.53;;;12.10;99.90;;;;;;5096807;28;20050;-75
2022/12/20 06:55:56;;;;;;;20.33;4.75;;;12.20;99.90;;;;;;5080363;28;20059;-75
2022/12/20 06:58:22;;;;;;;23.30;4.90;;;12.20;99.90;;;;;;5094098;28;20054;-75
2022/12/20 07:00:48;;;;;;;21.20;4.82;;;12.30;99.90;;;;;;5095114;28;20032;-75
2022/12/20 07:03:13;;;;;;;15.55;3.47;;;12.30;99.90;;;;;;5096492;28;20031;-76
2022/12/20 07:05:40;;;;;;;22.52;3.90;;;12.30;99.90;;;;;;5103492;28;20455;-75
2022/12/20 07:08:06;;;;;;;19.50;3.72;;;12.30;99.90;;;;;;5112898;28;20441;-74
2022/12/20 07:10:36;;;;;;;16.90;3.08;;;12.20;99.90;;;;;;5110161;28;20027;-74
2022/12/20 07:13:02;;;;;;;18.55;4.35;;;12.20;99.90;;;;;;5096208;28;20084;-74
2022/12/20 07:15:27;;;;;;;17.15;3.38;;;12.20;99.90;;;;;;5110963;28;20127;-74
2022/12/20 07:17:53;;;;;;;19.13;3.95;;;12.10;99.90;;;;;;5099868;28;20066;-74
2022/12/20 07:20:19;;;;;;;21.65;2.35;;;12.10;99.90;;;;;;5108830;28;20080;-74
2022/12/20 07:22:47;;;;;;;18.42;2.60;;;12.10;99.90;;;;;;5114222;27;20084;-74
2022/12/20 07:25:14;;;;;;;14.85;2.13;;;12.10;99.90;;;;;;5109893;27;20052;-74
2022/12/20 07:27:40;;;;;;;11.77;2.35;;;12.00;99.90;;;;;;5106373;27;20031;-75
2022/12/20 07:30:06;;;;;;;13.02;1.52;;;11.90;99.90;;;;;;5104801;27;20039;-75
2022/12/20 07:32:32;;;;;;;15.13;4.00;;;11.90;99.90;;;;;;5109866;27;20044;-76
2022/12/20 07:34:57;;;;;;;11.38;2.35;;;11.80;99.90;;;;;;5111520;28;20024;-76
2022/12/20 07:37:23;;;;;;;17.35;4.20;;;11.80;99.90;;;;;;5112032;28;20420;-76
2022/12/20 07:39:48;;;;;;;19.73;3.92;;;11.70;99.90;;;;;;5110727;27;20459;-75
2022/12/20 07:42:15;;;;;;;18.17;2.35;;;11.70;99.90;;;;;;5112062;28;20499;-75
2022/12/20 07:44:41;;;;;;;17.83;3.15;;;11.60;99.90;;;;;;5109841;28;20031;-74
2022/12/20 07:47:06;;;;;;;22.02;3.03;;;11.50;99.90;;;;;;5105118;28;20032;-75
2022/12/20 07:49:32;;;;;;;20.65;3.60;;;11.50;99.90;;;;;;5106374;27;20059;-74
2022/12/20 07:52:01;;;;;;;22.52;3.58;;;11.40;99.90;;;;;;5101659;28;20452;-75
2022/12/20 07:54:31;;;;;;;21.80;3.38;;;11.40;99.90;;;;;;5108416;27;20035;-73
2022/12/20 07:57:01;;;;;;;23.13;3.70;;;11.40;99.90;;;;;;5089877;28;20382;-76
2022/12/20 07:59:35;;;;;;;24.90;3.75;;;11.30;99.90;;;;;;5110185;28;20061;-73
2022/12/20 08:02:01;;;;;;;15.27;2.50;;;11.20;99.90;;;;;;5110644;28;20023;-74
2022/12/20 08:04:29;;;;;;;24.40;3.38;;;11.20;99.90;;;;;;5106554;28;20042;-72
2022/12/20 08:06:58;;;;;;;24.23;2.88;;;11.10;99.90;;;;;;5101176;28;20038;-75
2022/12/20 08:09:26;;;;;;;20.83;2.42;;;11.10;99.90;;;;;;5106431;28;20134;-75
2022/12/20 08:11:52;;;;;;;22.48;3.08;;;11.00;99.90;;;;;;5101512;28;20024;-74
2022/12/20 08:14:18;;;;;;;18.35;2.67;;;10.90;99.90;;;;;;5110311;28;20031;-76
2022/12/20 08:16:44;;;;;;;24.02;4.80;;;10.80;99.90;;;;;;5109404;28;20027;-74
2022/12/20 08:19:10;;;;;;;19.65;2.85;;;10.80;99.90;;;;;;5104544;28;20356;-75
2022/12/20 08:21:36;;;;;;;27.75;4.03;;;10.80;99.90;;;;;;5100452;28;20032;-76
2022/12/20 08:24:01;;;;;;;27.30;4.88;;;10.70;99.90;;;;;;5102173;28;20039;-74
2022/12/20 08:26:27;;;;;;;21.33;3.95;;;10.60;99.90;;;;;;5101173;28;20092;-73
2022/12/20 08:28:55;;;;;;;29.02;3.97;;;10.60;99.90;;;;;;5106104;28;20455;-75
2022/12/20 08:31:21;;;;;;;27.67;3.20;;;10.50;99.90;;;;;;5100939;27;20030;-80
2022/12/20 08:33:48;;;;;;;18.83;2.90;;;10.50;99.90;;;;;;5093404;28;20051;-78
2022/12/20 08:36:13;;;;;;;35.28;4.25;;;10.50;99.90;;;;;;5106228;28;20031;-79
2022/12/20 08:38:41;;;;;;;21.42;3.88;;;10.40;99.90;;;;;;5101730;28;20091;-79
2022/12/20 08:41:09;;;;;;;19.08;3.78;;;10.40;99.90;;;;;;5104988;28;20102;-78
2022/12/20 08:43:36;;;;;;;20.98;4.57;;;10.40;99.90;;;;;;5102379;28;20024;-78
2022/12/20 08:46:02;;;;;;;24.00;3.58;;;10.30;99.90;;;;;;5110504;28;20028;-80
2022/12/20 08:48:28;;;;;;;14.35;3.65;;;10.30;99.90;;;;;;5091472;28;20035;-78
2022/12/20 08:50:56;;;;;;;17.80;2.70;;;10.20;99.90;;;;;;5091746;28;20052;-78
2022/12/20 08:53:22;;;;;;;20.05;3.60;;;10.20;99.90;;;;;;5071011;28;20067;-76
2022/12/20 08:55:48;;;;;;;21.35;3.97;;;10.20;99.90;;;;;;5099360;28;20028;-75
2022/12/20 08:58:14;;;;;;;19.77;2.90;;;10.20;99.90;;;;;;5088217;28;20031;-73
2022/12/20 09:00:40;;;;;;;15.68;5.30;;;10.20;99.90;;;;;;5107035;28;20114;-75
2022/12/20 09:03:07;;;;;;;8.70;1.38;;;10.20;99.90;;;;;;5105481;28;20033;-75
2022/12/20 09:05:32;;;;;;;12.85;2.17;;;10.20;99.90;;;;;;5104625;28;20050;-76
2022/12/20 09:07:58;;;;;;;18.35;2.58;;;10.20;99.90;;;;;;5101783;28;20032;-76
2022/12/20 09:10:24;;;;;;;13.50;2.42;;;10.30;99.90;;;;;;5100712;28;20081;-74
2022/12/20 09:12:50;;;;;;;16.20;3.80;;;10.30;99.90;;;;;;5102134;28;20056;-76
2022/12/20 09:15:16;;;;;;;8.35;1.58;;;10.40;99.90;;;;;;5104205;28;20038;-77
2022/12/20 09:17:42;;;;;;;9.35;2.33;;;10.40;99.90;;;;;;5104662;28;20600;-75
2022/12/20 09:20:08;;;;;;;12.55;2.17;;;10.40;99.90;;;;;;5099823;28;20374;-76
2022/12/20 09:22:34;;;;;;;12.35;2.00;;;10.40;99.90;;;;;;5098017;28;20066;-75
2022/12/20 09:24:59;;;;;;;11.23;2.03;;;10.40;99.90;;;;;;5103860;28;20052;-76
2022/12/20 09:27:25;;;;;;;13.02;1.88;;;10.30;99.90;;;;;;5106007;28;20064;-76
2022/12/20 09:29:50;;;;;;;13.60;3.20;;;10.40;99.90;;;;;;5107098;28;20070;-76
2022/12/20 09:32:16;;;;;;;9.95;2.60;;;10.50;99.90;;;;;;5106877;28;20035;-76
2022/12/20 09:34:41;;;;;;;9.45;1.35;;;10.40;99.90;;;;;;5099808;28;20103;-74
2022/12/20 09:37:07;;;;;;;8.50;1.30;;;10.50;99.90;;;;;;5106806;28;20024;-76
2022/12/20 09:39:33;;;;;;;8.90;1.50;;;10.40;99.90;;;;;;5103616;28;20399;-75
2022/12/20 09:41:59;;;;;;;8.00;1.48;;;10.40;99.90;;;;;;5104678;28;20047;-74
2022/12/20 09:44:31;;;;;;;8.82;1.35;;;10.40;99.90;;;;;;5096585;28;20058;-73
2022/12/20 09:47:05;;;;;;;6.07;1.25;;;10.40;99.90;;;;;;5086522;28;20048;-74
2022/12/20 09:49:35;;;;;;;8.05;1.38;;;10.50;99.90;;;;;;5101021;28;20099;-77
2022/12/20 09:52:21;;;;;;;7.72;1.23;;;10.40;99.90;;;;;;5102447;28;20027;-76
2022/12/20 09:54:53;;;;;;;6.15;1.48;;;10.40;99.90;;;;;;5101493;28;20047;-75
2022/12/20 09:57:27;;;;;;;5.60;1.33;;;10.40;99.90;;;;;;5079392;28;20383;-75
2022/12/20 09:59:56;;;;;;;6.53;1.05;;;10.40;99.90;;;;;;5101707;28;20035;-73
2022/12/20 10:02:24;;;;;;;8.68;1.65;;;10.40;99.90;;;;;;5108755;28;20047;-75
2022/12/20 10:04:50;;;;;;;9.65;1.88;;;10.40;99.90;;;;;;5098959;28;20104;-74
2022/12/20 10:07:47;;;;;;;5.22;1.55;;;10.40;99.90;;;;;;5102432;28;20027;-76
2022/12/20 10:10:53;;;;;;;4.43;1.38;;;10.40;99.90;;;;;;5104111;28;20070;-76
2022/12/20 10:13:27;;;;;;;4.95;1.15;;;10.40;99.90;;;;;;5101304;28;20154;-73
2022/12/20 10:16:18;;;;;;;4.40;0.70;;;10.40;99.90;;;;;;5101128;28;20115;-74
2022/12/20 10:19:13;;;;;;;3.92;1.15;;;10.30;99.90;;;;;;5091481;28;20119;-74
2022/12/20 10:22:04;;;;;;;4.80;0.65;;;10.40;99.90;;;;;;5099252;28;20032;-75
2022/12/20 10:24:31;;;;;;;5.57;1.17;;;10.40;99.90;;;;;;5096280;28;20039;-74
2022/12/20 10:27:18;;;;;;;5.82;1.08;;;10.40;99.90;;;;;;5094033;28;20483;-74
2022/12/20 10:29:45;;;;;;;2.75;0.52;;;10.50;99.90;;;;;;5104578;28;20031;-73
2022/12/20 10:32:17;;;;;;;4.60;0.68;;;10.40;99.90;;;;;;5101232;28;20027;-75
2022/12/20 10:35:25;;;;;;;2.70;0.47;;;10.40;99.90;;;;;;5098604;28;20093;-77
2022/12/20 10:38:05;;;;;;;2.83;0.82;;;10.40;99.90;;;;;;5023928;28;20116;-75
2022/12/20 10:40:37;;;;;;;3.17;0.68;;;10.60;99.90;;;;;;5027254;28;20212;-73
2022/12/20 10:43:05;;;;;;;4.03;0.68;;;10.70;99.90;;;;;;5027195;28;20041;-75
2022/12/20 10:45:36;;;;;;;5.10;0.50;;;10.60;99.90;;;;;;5026489;28;20169;-75
2022/12/20 10:48:24;;;;;;;2.83;0.30;;;10.50;99.90;;;;;;5027605;28;20517;-76
2022/12/20 10:51:02;;;;;;;5.25;0.75;;;10.50;99.90;;;;;;5029017;28;20448;-76
2022/12/20 10:53:30;;;;;;;5.72;1.00;;;10.40;99.90;;;;;;5009087;28;20497;-75
2022/12/20 10:56:20;;;;;;;5.57;0.63;;;10.40;99.90;;;;;;5026075;28;20175;-74
2022/12/20 10:59:02;;;;;;;6.03;0.60;;;10.40;99.90;;;;;;5027273;28;20108;-76
2022/12/20 11:01:35;;;;;;;3.58;0.63;;;10.30;99.90;;;;;;5024647;28;20030;-73
2022/12/20 11:04:31;;;;;;;8.32;1.48;;;10.20;99.90;;;;;;5030039;28;20116;-76
2022/12/20 11:06:59;;;;;;;3.58;0.95;;;10.20;99.90;;;;;;5027713;28;20121;-75
2022/12/20 11:09:36;;;;;;;5.30;0.80;;;10.20;99.90;;;;;;5028303;28;20112;-74
2022/12/20 11:12:14;;;;;;;3.63;0.70;;;10.20;99.90;;;;;;5078138;28;20035;-77
2022/12/20 11:14:42;;;;;;;8.82;2.05;;;10.10;99.90;;;;;;5105486;28;20035;-76
2022/12/20 11:17:13;;;;;;;4.25;1.55;;;10.10;99.90;;;;;;5100196;28;20027;-75
2022/12/20 11:19:42;;;;;;;3.42;0.52;;;10.10;99.90;;;;;;5101309;28;20039;-76
2022/12/20 11:22:38;;;;;;;8.70;1.75;;;10.10;99.90;;;;;;5101029;28;20028;-75
2022/12/20 11:25:37;;;;;;;4.55;0.70;;;10.00;99.90;;;;;;5101008;28;20028;-73
2022/12/20 11:28:20;;;;;;;4.97;0.60;;;10.00;99.90;;;;;;5093772;28;20377;-74
2022/12/20 11:31:11;;;;;;;;;;;10.00;99.90;;;;;;5102422;28;20024;-75
2022/12/20 11:33:55;;;;;;;10.10;1.02;;;10.10;99.90;;;;;;5095163;28;19953;-75
2022/12/20 11:36:35;;;;;;;4.38;0.80;;;10.30;99.90;;;;;;5107710;28;20084;-75
2022/12/20 11:39:26;;;;;;;7.13;0.60;;;10.40;99.90;;;;;;5104217;28;20055;-75
2022/12/20 11:42:22;;;;;;;7.55;1.73;;;10.50;99.90;;;;;;5097496;28;20031;-75
2022/12/20 11:45:00;;;;;;;8.25;1.48;;;10.60;99.90;;;;;;5081900;28;20395;-71
2022/12/20 11:47:43;;;;;;;5.88;1.00;;;10.50;99.90;;;;;;5096430;28;20096;-77
2022/12/20 11:50:27;;;;;;;6.82;1.00;;;10.40;99.90;;;;;;5088884;28;20027;-78
2022/12/20 11:53:01;;;;;;;9.45;1.23;;;10.60;99.90;;;;;;5100336;28;20081;-78
2022/12/20 11:55:32;;;;;;;8.32;0.93;;;11.00;99.90;;;;;;5102598;28;20028;-76
2022/12/20 11:58:01;;;;;;;8.90;1.75;;;11.10;99.90;;;;;;5098913;28;20103;-76
2022/12/20 12:00:27;;;;;;;8.25;1.02;;;11.20;99.90;;;;;;5103574;28;20020;-76
2022/12/20 12:03:03;;;;;;;8.45;1.30;;;11.20;99.90;;;;;;5090317;28;20414;-76
2022/12/20 12:05:40;;;;;;;5.68;1.05;;;11.50;99.90;;;;;;5102725;28;20790;-75
2022/12/20 12:08:16;;;;;;;11.93;1.52;;;11.70;99.90;;;;;;5099713;28;20096;-78
2022/12/20 12:10:52;;;;;;;15.60;2.13;;;11.60;99.90;;;;;;5100195;28;20039;-78
2022/12/20 12:13:24;;;;;;;6.72;0.98;;;11.70;99.90;;;;;;5098938;28;20115;-78
2022/12/20 12:16:10;;;;;;;9.70;1.40;;;12.10;99.90;;;;;;5101966;27;20035;-77
2022/12/20 12:18:38;;;;;;;15.35;1.55;;;12.10;99.90;;;;;;5095966;28;20028;-75
2022/12/20 12:21:04;;;;;;;9.57;1.27;;;12.30;99.90;;;;;;5105323;28;20043;-75
2022/12/20 12:23:57;;;;;;;4.93;1.05;;;12.10;99.90;;;;;;5101491;28;20036;-75
2022/12/20 12:26:34;;;;;;;9.88;2.83;;;12.10;99.90;;;;;;5100185;28;20192;-77
2022/12/20 12:29:01;;;;;;;7.13;1.20;;;12.60;99.90;;;;;;5101029;28;20118;-74
2022/12/20 12:31:47;;;;;;;14.23;2.00;;;13.50;99.90;;;;;;5106405;27;20030;-74
2022/12/20 12:34:48;;;;;;;15.32;2.08;;;14.00;99.90;;;;;;5111759;27;20518;-76
2022/12/20 12:37:23;;;;;;;10.20;1.83;;;14.60;99.90;;;;;;5105611;27;20529;-75
2022/12/20 12:39:57;;;;;;;14.88;2.45;;;14.80;99.90;;;;;;5106273;28;20399;-75
2022/12/20 12:42:29;;;;;;;11.05;1.80;;;15.20;99.90;;;;;;5087239;28;20061;-76
2022/12/20 12:45:00;;;;;;;4.97;1.27;;;15.20;99.90;;;;;;5099786;28;20536;-75
2022/12/20 12:47:46;;;;;;;16.80;3.30;;;15.40;99.90;;;;;;5103171;28;20253;-75
2022/12/20 12:50:26;;;;;;;18.52;2.78;;;15.40;99.90;;;;;;5105216;28;20039;-75
2022/12/20 12:52:54;;;;;;;5.65;1.40;;;15.50;99.90;;;;;;5098334;28;20024;-75
2022/12/20 12:55:37;;;;;;;28.33;2.72;;;15.10;99.90;;;;;;5097319;28;20030;-75
2022/12/20 12:58:21;;;;;;;7.93;1.20;;;15.00;99.90;;;;;;5097737;28;20550;-74
2022/12/20 13:00:50;;;;;;;17.55;2.03;;;15.20;99.90;;;;;;5084125;28;20110;-71
2022/12/20 13:03:36;;;;;;;9.82;1.17;;;15.40;99.90;;;;;;5099204;28;20031;-76
2022/12/20 13:06:29;;;;;;;8.10;1.48;;;14.90;99.90;;;;;;5107208;28;20042;-75